createdAt,value
2023-05-15T00:00:28.097Z,17.80
2023-05-15T00:04:28.484Z,17.88
2023-05-15T00:08:28.813Z,17.68
2023-05-15T00:12:31.872Z,17.80
2023-05-15T00:16:32.343Z,17.87
2023-05-15T00:20:32.617Z,17.80
2023-05-15T00:24:32.879Z,17.80
2023-05-15T00:28:35.759Z,17.57
2023-05-15T00:32:36.037Z,17.86
2023-05-15T00:36:36.374Z,17.80
2023-05-15T00:40:40.543Z,17.88
2023-05-15T00:44:46.859Z,18.06
2023-05-15T00:48:47.570Z,18.35
2023-05-15T00:52:49.458Z,18.11
2023-05-15T00:56:53.810Z,18.08
2023-05-15T01:00:57.224Z,18.10
2023-05-15T01:04:58.012Z,17.88
2023-05-15T01:09:02.578Z,17.71
2023-05-15T01:13:05.348Z,17.56
2023-05-15T01:17:09.443Z,17.68
2023-05-15T01:22:07.951Z,17.61
2023-05-15T01:26:58.967Z,17.63
2023-05-15T01:31:13.079Z,17.49
2023-05-15T01:35:22.220Z,17.65
2023-05-15T01:39:30.142Z,17.39
2023-05-15T01:43:34.759Z,17.63
2023-05-15T01:47:44.267Z,17.43
2023-05-15T01:51:48.849Z,17.48
2023-05-15T01:55:51.606Z,17.48
2023-05-15T01:59:53.763Z,17.45
2023-05-15T02:03:57.851Z,17.53
2023-05-15T02:07:59.524Z,17.41
2023-05-15T02:12:00.822Z,17.33
2023-05-15T02:16:01.160Z,17.23
2023-05-15T02:20:05.140Z,17.30
2023-05-15T02:24:05.543Z,17.15
2023-05-15T02:28:12.567Z,17.39
2023-05-15T02:32:25.532Z,17.39
2023-05-15T02:36:35.341Z,17.44
2023-05-15T02:40:39.264Z,17.46
2023-05-15T02:44:41.116Z,17.38
2023-05-15T02:48:44.900Z,17.46
2023-05-15T02:52:49.906Z,17.41
2023-05-15T02:56:50.405Z,17.35
2023-05-15T03:00:50.633Z,17.38
2023-05-15T03:04:51.153Z,17.28
2023-05-15T03:08:53.966Z,17.41
2023-05-15T03:12:58.517Z,17.53
2023-05-15T03:16:58.833Z,17.48
2023-05-15T03:20:59.032Z,17.59
2023-05-15T03:25:02.177Z,17.53
2023-05-15T03:29:04.196Z,17.67
2023-05-15T03:33:04.442Z,17.64
2023-05-15T03:37:04.700Z,17.68
2023-05-15T03:41:07.475Z,17.57
2023-05-15T03:45:09.545Z,17.63
2023-05-15T03:49:10.033Z,17.54
2023-05-15T03:53:10.409Z,17.65
2023-05-15T03:57:13.291Z,17.58
2023-05-15T04:01:13.558Z,17.59
2023-05-15T04:05:14.189Z,17.54
2023-05-15T04:09:14.665Z,17.62
2023-05-15T04:13:18.200Z,17.66
2023-05-15T04:17:19.161Z,17.66
2023-05-15T04:21:19.679Z,17.62
2023-05-15T04:25:20.506Z,17.71
2023-05-15T04:29:23.424Z,17.87
2023-05-15T04:33:23.852Z,17.89
2023-05-15T04:37:24.137Z,17.94
2023-05-15T04:41:24.369Z,17.87
2023-05-15T04:45:27.533Z,18.09
2023-05-15T04:49:27.828Z,18.13
2023-05-15T04:53:28.106Z,17.97
2023-05-15T04:57:28.477Z,18.07
2023-05-15T05:01:31.525Z,18.13
2023-05-15T05:05:32.217Z,18.17
2023-05-15T05:09:32.498Z,18.28
2023-05-15T05:13:34.201Z,17.98
2023-05-15T05:17:36.986Z,18.02
2023-05-15T05:21:37.496Z,18.16
2023-05-15T05:25:37.754Z,18.46
2023-05-15T05:29:38.037Z,18.70
2023-05-15T05:33:41.015Z,18.64
2023-05-15T05:37:41.614Z,18.97
2023-05-15T05:41:41.916Z,19.04
2023-05-15T05:45:42.258Z,18.81
2023-05-15T05:49:48.242Z,18.87
2023-05-15T05:53:48.644Z,19.06
2023-05-15T05:57:49.055Z,19.25
2023-05-15T06:01:51.180Z,19.21
2023-05-15T06:05:54.047Z,19.40
2023-05-15T06:09:54.257Z,18.59
2023-05-15T06:13:54.482Z,18.14
2023-05-15T06:17:55.036Z,18.45
2023-05-15T06:21:57.906Z,18.88
2023-05-15T06:25:58.682Z,19.21
2023-05-15T06:29:59.161Z,19.00
2023-05-15T06:33:59.340Z,19.37
2023-05-15T06:38:02.623Z,19.43
2023-05-15T06:42:02.857Z,19.84
2023-05-15T06:46:03.487Z,20.14
2023-05-15T06:50:03.890Z,20.21
2023-05-15T06:54:07.054Z,20.47
2023-05-15T06:58:08.096Z,20.34
2023-05-15T07:02:08.616Z,20.66
2023-05-15T07:06:09.570Z,20.56
2023-05-15T07:10:13.500Z,20.79
2023-05-15T07:14:13.854Z,20.90
2023-05-15T07:18:14.103Z,20.95
2023-05-15T07:22:14.415Z,20.88
2023-05-15T07:26:28.725Z,21.14
2023-05-15T07:30:34.906Z,21.36
2023-05-15T07:34:37.708Z,21.88
2023-05-15T07:38:38.249Z,22.04
2023-05-15T07:42:41.628Z,22.19
2023-05-15T07:46:41.958Z,22.53
2023-05-15T07:50:46.893Z,23.26
2023-05-15T07:54:47.117Z,24.83
2023-05-15T07:58:50.175Z,25.95
2023-05-15T08:02:52.259Z,27.42
2023-05-15T08:06:52.738Z,27.36
2023-05-15T08:10:52.973Z,28.30
2023-05-15T08:14:57.970Z,27.66
2023-05-15T08:19:01.500Z,25.48
2023-05-15T08:23:01.825Z,25.45
2023-05-15T08:27:02.244Z,25.37
2023-05-15T08:31:05.139Z,25.63
2023-05-15T08:35:06.035Z,28.02
2023-05-15T08:39:06.356Z,28.46
2023-05-15T08:43:16.509Z,29.04
2023-05-15T08:47:21.762Z,28.21
2023-05-15T08:51:23.349Z,27.75
2023-05-15T08:55:24.359Z,27.23
2023-05-15T08:59:25.691Z,26.98
2023-05-15T09:03:28.984Z,26.06
2023-05-15T09:07:30.599Z,26.15
2023-05-15T09:11:33.753Z,25.17
2023-05-15T09:15:34.119Z,25.13
2023-05-15T09:19:38.300Z,24.22
2023-05-15T09:23:38.798Z,23.42
2023-05-15T09:27:46.369Z,21.88
2023-05-15T09:31:48.952Z,21.38
2023-05-15T09:35:53.316Z,20.52
2023-05-15T09:39:53.854Z,21.03
2023-05-15T09:43:56.412Z,21.55
2023-05-15T09:47:57.246Z,22.20
2023-05-15T09:52:02.220Z,22.82
2023-05-15T09:56:03.232Z,24.36
2023-05-15T10:00:12.079Z,25.97
2023-05-15T10:04:13.609Z,27.64
2023-05-15T10:08:17.888Z,29.18
2023-05-15T10:12:19.200Z,30.47
2023-05-15T10:16:24.148Z,27.06
2023-05-15T10:20:28.810Z,23.28
2023-05-15T10:24:35.455Z,21.33
2023-05-15T10:28:38.357Z,20.29
2023-05-15T10:32:39.506Z,20.21
2023-05-15T10:36:41.468Z,20.20
2023-05-15T10:40:45.374Z,20.33
2023-05-15T10:44:45.686Z,20.36
2023-05-15T10:48:46.627Z,20.97
2023-05-15T10:52:47.152Z,21.84
2023-05-15T10:56:52.115Z,23.10
2023-05-15T11:00:53.316Z,24.65
2023-05-15T11:04:59.607Z,24.96
2023-05-15T11:09:38.994Z,25.10
2023-05-15T11:14:23.993Z,25.17
2023-05-15T11:18:24.280Z,26.47
2023-05-15T11:22:30.258Z,27.77
2023-05-15T11:26:36.571Z,29.68
2023-05-15T11:30:44.394Z,28.02
2023-05-15T11:34:45.470Z,25.90
2023-05-15T11:38:47.022Z,25.16
2023-05-15T11:43:07.024Z,24.65
2023-05-15T11:47:13.601Z,25.04
2023-05-15T11:51:21.849Z,25.56
2023-05-15T11:55:23.619Z,25.06
2023-05-15T11:59:24.891Z,26.91
2023-05-15T12:03:35.452Z,27.48
2023-05-15T12:07:40.080Z,26.42
2023-05-15T12:11:40.481Z,26.51
2023-05-15T12:15:42.831Z,26.53
2023-05-15T12:19:47.240Z,27.89
2023-05-15T12:24:06.871Z,30.35
2023-05-15T12:28:09.053Z,30.37
2023-05-15T12:32:12.301Z,29.94
2023-05-15T12:36:15.428Z,30.62
2023-05-15T12:40:16.696Z,31.38
2023-05-15T12:44:20.087Z,31.45
2023-05-15T12:48:20.295Z,29.94
2023-05-15T12:52:23.417Z,29.06
2023-05-15T12:56:24.038Z,27.86
2023-05-15T13:00:25.688Z,28.29
2023-05-15T13:04:30.252Z,30.59
2023-05-15T13:38:45.069Z,27.06
2023-05-15T13:42:49.569Z,26.33
2023-05-15T13:46:50.140Z,25.52
2023-05-15T13:50:50.499Z,26.00
2023-05-15T13:54:52.962Z,25.63
2023-05-15T13:58:56.428Z,25.42
2023-05-15T14:03:00.634Z,25.70
2023-05-15T14:58:33.519Z,26.19
2023-05-15T15:02:34.120Z,25.94
2023-05-15T15:06:42.333Z,25.74
2023-05-15T15:10:44.077Z,25.17
2023-05-15T15:14:44.380Z,25.59
2023-05-15T15:18:45.389Z,26.49
2023-05-15T15:22:52.208Z,27.13
2023-05-15T15:26:53.112Z,27.40
2023-05-15T15:30:53.564Z,30.05
2023-05-15T15:34:54.085Z,30.73
2023-05-15T15:38:57.631Z,31.14
2023-05-15T15:42:57.865Z,31.14
2023-05-15T15:46:58.181Z,30.91
2023-05-15T15:50:58.439Z,30.90
2023-05-15T15:55:05.059Z,30.95
2023-05-15T15:59:05.989Z,32.33
2023-05-15T16:03:09.670Z,33.72
2023-05-15T16:07:12.005Z,34.60
2023-05-15T16:11:16.810Z,35.35
2023-05-15T16:15:23.109Z,33.90
2023-05-15T16:19:27.854Z,31.30
2023-05-15T16:23:28.643Z,30.30
2023-05-15T16:27:31.651Z,28.76
2023-05-15T16:31:32.325Z,28.15
2023-05-15T16:35:36.586Z,27.64
2023-05-15T16:39:40.480Z,27.22
2023-05-15T16:43:43.316Z,26.86
2023-05-15T16:47:43.606Z,26.44
2023-05-15T16:51:44.071Z,26.21
2023-05-15T16:55:44.510Z,26.00
2023-05-15T16:59:47.376Z,25.15
2023-05-15T17:03:47.846Z,26.37
2023-05-15T17:07:48.170Z,27.51
2023-05-15T17:11:48.556Z,28.00
2023-05-15T17:15:51.450Z,26.69
2023-05-15T17:19:51.893Z,26.88
2023-05-15T17:23:54.846Z,27.04
2023-05-15T17:27:55.312Z,27.29
2023-05-15T17:31:58.463Z,28.10
2023-05-15T17:35:58.725Z,28.98
2023-05-15T17:39:58.988Z,28.27
2023-05-15T17:43:59.382Z,27.01
2023-05-15T17:48:04.259Z,26.88
2023-05-15T17:52:04.695Z,27.22
2023-05-15T17:56:05.724Z,27.07
2023-05-15T18:00:07.254Z,26.32
2023-05-15T18:04:15.539Z,25.98
2023-05-15T18:08:16.118Z,25.24
2023-05-15T18:12:17.275Z,25.17
2023-05-15T18:16:18.278Z,24.77
2023-05-15T18:20:21.326Z,24.25
2023-05-15T18:24:21.623Z,23.73
2023-05-15T18:28:21.915Z,23.39
2023-05-15T18:32:22.185Z,23.24
2023-05-15T18:36:25.063Z,22.88
2023-05-15T18:40:26.672Z,22.71
2023-05-15T18:44:26.918Z,22.53
2023-05-15T18:48:27.344Z,22.35
2023-05-15T18:52:30.825Z,22.26
2023-05-15T18:56:30.969Z,22.43
2023-05-15T19:00:43.541Z,22.20
2023-05-15T19:04:44.012Z,22.51
2023-05-15T19:08:47.800Z,22.54
2023-05-15T19:12:48.095Z,22.42
2023-05-15T19:16:48.981Z,22.25
2023-05-15T19:20:52.698Z,22.30
2023-05-15T19:24:56.092Z,21.89
2023-05-15T19:28:56.409Z,21.57
2023-05-15T19:32:56.698Z,21.40
2023-05-15T19:36:57.179Z,21.22
2023-05-15T19:41:00.008Z,21.32
2023-05-15T19:45:00.539Z,21.21
2023-05-15T19:49:01.386Z,21.33
2023-05-15T19:53:01.657Z,21.26
2023-05-15T19:57:05.048Z,21.33
2023-05-15T20:01:05.454Z,21.11
2023-05-15T20:05:05.789Z,21.11
2023-05-15T20:09:06.169Z,20.83
2023-05-15T20:13:09.310Z,20.80
2023-05-15T20:17:09.478Z,20.70
2023-05-15T20:21:09.893Z,21.09
2023-05-15T20:25:12.186Z,21.29
2023-05-15T20:29:15.076Z,21.45
2023-05-15T20:33:15.300Z,21.39
2023-05-15T20:37:16.546Z,21.65
2023-05-15T20:41:17.163Z,21.66
2023-05-15T20:45:20.214Z,21.36
2023-05-15T20:49:21.476Z,21.48
2023-05-15T20:53:22.093Z,21.41
2023-05-15T20:57:22.534Z,21.37
2023-05-15T21:01:25.430Z,21.47
2023-05-15T21:05:25.864Z,21.56
2023-05-15T21:09:26.055Z,21.36
2023-05-15T21:13:27.654Z,21.47
2023-05-15T21:17:30.640Z,21.34
2023-05-15T21:21:31.196Z,21.46
2023-05-15T21:25:31.405Z,21.27
2023-05-15T21:29:31.712Z,20.93
2023-05-15T21:33:36.021Z,20.93
2023-05-15T21:37:36.602Z,20.77
2023-05-15T21:41:36.825Z,20.59
2023-05-15T21:45:37.066Z,20.52
2023-05-15T21:49:39.948Z,20.31
2023-05-15T21:53:40.505Z,20.02
2023-05-15T21:57:40.775Z,20.06
2023-05-15T22:01:41.507Z,20.24
2023-05-15T22:05:44.380Z,20.04
2023-05-15T22:09:47.194Z,20.01
2023-05-15T22:13:48.182Z,19.96
2023-05-15T22:17:48.703Z,19.91
2023-05-15T22:21:51.835Z,19.93
2023-05-15T22:25:52.026Z,19.83
2023-05-15T22:29:52.312Z,19.74
2023-05-15T22:33:52.844Z,19.59
2023-05-15T22:37:55.565Z,19.73
2023-05-15T22:41:56.104Z,19.81
2023-05-15T22:45:56.614Z,19.60
2023-05-15T22:49:57.132Z,19.59
2023-05-15T22:53:59.909Z,19.68
2023-05-15T22:58:00.134Z,19.59
2023-05-15T23:02:01.137Z,19.51
2023-05-15T23:06:01.585Z,19.33
2023-05-15T23:10:04.477Z,19.26
2023-05-15T23:14:05.927Z,19.06
2023-05-15T23:18:07.309Z,19.09
2023-05-15T23:22:08.201Z,18.91
2023-05-15T23:26:11.095Z,19.03
2023-05-15T23:30:12.847Z,18.91
2023-05-15T23:34:13.115Z,18.69
2023-05-15T23:38:13.390Z,18.61
2023-05-15T23:42:16.171Z,18.74
2023-05-15T23:46:16.394Z,18.79
2023-05-15T23:50:16.882Z,18.72
2023-05-15T23:54:17.026Z,18.71
2023-05-15T23:58:19.794Z,18.68
